Marion, Montana
Current Conditions -  °F | °C
As of 5:55 PM on Saturday 22 Nov 2014 (Local Time) from KGPI Reporting Station
Overcast Overcast  
Wind Chill:   Ceiling: 6000
Heat Index:   Visibility: 10mi
Dew Point: -5°   Wind: 3mph
Humidity: 53%   Direction: 190°S
Pressure: 29.65"   Gusts: NA
Location:  48.11°N, 114.66°W
Report Text: KGPI 230055Z 19003KT 10SM OVC060 04/M05 A2965 RMK AO2 SLP057 T00391050
Loading
Personal Weather Stations






























Interactive Weather Map New forecast layout! Learn more

10-Day Weather Forecast

Advertisements
Track Severe Weather on mobile